TimeEDT,TemperatureF,Dew PointF,Humidity,Sea Level PressureIn,VisibilityMPH,Wind Direction,Wind SpeedMPH,Gust SpeedMPH,PrecipitationIn,Events,Conditions,WindDirDegrees,DateUTC
12:15 AM,53.6,37.4,54,29.81,10.0,SSE,8.1,17.3,N/A,,Clear,160,2012-10-18 04:15:00
12:35 AM,53.6,37.4,54,29.80,10.0,SSE,10.4,-,N/A,,Clear,160,2012-10-18 04:35:00
12:55 AM,51.8,37.4,58,29.80,10.0,SSE,11.5,-,N/A,,Clear,160,2012-10-18 04:55:00
1:15 AM,51.8,37.4,58,29.80,10.0,SSE,12.7,17.3,N/A,,Clear,160,2012-10-18 05:15:00
1:35 AM,51.8,37.4,58,29.78,10.0,SSE,13.8,19.6,N/A,,Clear,160,2012-10-18 05:35:00
1:55 AM,51.8,37.4,58,29.77,10.0,SSE,11.5,-,N/A,,Clear,150,2012-10-18 05:55:00
2:15 AM,51.8,37.4,58,29.78,10.0,SSE,8.1,-,N/A,,Clear,160,2012-10-18 06:15:00
2:35 AM,51.8,39.2,62,29.78,10.0,South,9.2,-,N/A,,Clear,170,2012-10-18 06:35:00
2:55 AM,51.8,39.2,62,29.78,10.0,South,10.4,-,N/A,,Clear,170,2012-10-18 06:55:00
3:15 AM,51.8,39.2,62,29.77,10.0,SSE,12.7,-,N/A,,Clear,160,2012-10-18 07:15:00
3:35 AM,51.8,39.2,62,29.76,10.0,SSE,10.4,18.4,N/A,,Clear,160,2012-10-18 07:35:00
3:55 AM,50.0,39.2,66,29.76,10.0,SSE,11.5,-,N/A,,Clear,160,2012-10-18 07:55:00
4:15 AM,50.0,39.2,66,29.75,10.0,South,10.4,-,N/A,,Clear,170,2012-10-18 08:15:00
4:35 AM,50.0,39.2,66,29.75,10.0,South,10.4,-,N/A,,Clear,170,2012-10-18 08:35:00
4:55 AM,50.0,39.2,66,29.75,10.0,South,10.4,-,N/A,,Clear,170,2012-10-18 08:55:00
5:15 AM,50.0,41.0,71,29.75,10.0,South,9.2,-,N/A,,Clear,170,2012-10-18 09:15:00
5:35 AM,50.0,41.0,71,29.75,10.0,South,11.5,16.1,N/A,,Clear,170,2012-10-18 09:35:00
5:55 AM,50.0,41.0,71,29.74,10.0,South,11.5,-,N/A,,Clear,170,2012-10-18 09:55:00
6:15 AM,50.0,42.8,76,29.74,10.0,South,11.5,18.4,N/A,,Clear,170,2012-10-18 10:15:00
6:35 AM,50.0,42.8,76,29.74,10.0,SSE,12.7,17.3,N/A,,Clear,160,2012-10-18 10:35:00
6:55 AM,48.2,42.8,82,29.74,10.0,South,10.4,-,N/A,,Clear,170,2012-10-18 10:55:00
7:35 AM,48.2,42.8,82,29.72,10.0,SSE,11.5,19.6,N/A,,Clear,160,2012-10-18 11:35:00
7:55 AM,48.2,42.8,82,29.72,10.0,SSE,13.8,20.7,N/A,,Clear,160,2012-10-18 11:55:00
8:15 AM,50.0,42.8,76,29.73,10.0,SSE,13.8,20.7,N/A,,Clear,160,2012-10-18 12:15:00
8:35 AM,51.8,42.8,71,29.73,10.0,SSE,12.7,20.7,N/A,,Clear,150,2012-10-18 12:35:00
8:55 AM,51.8,42.8,71,29.73,10.0,South,13.8,20.7,N/A,,Clear,170,2012-10-18 12:55:00
9:15 AM,51.8,42.8,71,29.73,10.0,SSE,17.3,21.9,N/A,,Clear,160,2012-10-18 13:15:00
9:35 AM,53.6,42.8,67,29.73,10.0,SSE,16.1,21.9,N/A,,Clear,160,2012-10-18 13:35:00
9:55 AM,53.6,42.8,67,29.72,10.0,SSE,11.5,-,N/A,,Clear,150,2012-10-18 13:55:00
10:15 AM,53.6,42.8,67,29.72,10.0,SSE,13.8,20.7,N/A,,Clear,160,2012-10-18 14:15:00
10:35 AM,53.6,42.8,67,29.70,10.0,SSE,11.5,-,N/A,,Clear,160,2012-10-18 14:35:00
10:55 AM,55.4,42.8,63,29.70,10.0,SSE,15.0,23.0,N/A,,Clear,150,2012-10-18 14:55:00
11:15 AM,55.4,42.8,63,29.70,10.0,South,10.4,16.1,N/A,,Clear,170,2012-10-18 15:15:00
11:35 AM,57.2,42.8,59,29.69,10.0,SSE,12.7,21.9,N/A,,Clear,160,2012-10-18 15:35:00
11:55 AM,57.2,42.8,59,29.69,10.0,South,12.7,20.7,N/A,,Clear,180,2012-10-18 15:55:00
12:15 PM,59.0,42.8,55,29.68,10.0,SSE,16.1,21.9,N/A,,Clear,160,2012-10-18 16:15:00
12:35 PM,60.8,42.8,52,29.69,10.0,South,15.0,24.2,N/A,,Partly Cloudy,170,2012-10-18 16:35:00
12:55 PM,62.6,44.6,52,29.69,10.0,South,16.1,24.2,N/A,,Partly Cloudy,180,2012-10-18 16:55:00
1:15 PM,62.6,44.6,52,29.68,10.0,SSE,13.8,24.2,N/A,,Mostly Cloudy,160,2012-10-18 17:15:00
1:35 PM,62.6,44.6,52,29.68,10.0,South,12.7,20.7,N/A,,Overcast,170,2012-10-18 17:35:00
1:55 PM,64.4,44.6,49,29.67,10.0,South,13.8,21.9,N/A,,Mostly Cloudy,180,2012-10-18 17:55:00
2:15 PM,62.6,44.6,52,29.68,10.0,South,11.5,23.0,N/A,,Overcast,170,2012-10-18 18:15:00
2:35 PM,64.4,44.6,49,29.68,10.0,South,15.0,20.7,N/A,,Overcast,190,2012-10-18 18:35:00
2:55 PM,64.4,44.6,49,29.68,10.0,South,15.0,19.6,N/A,,Overcast,180,2012-10-18 18:55:00
3:15 PM,64.4,44.6,49,29.68,10.0,South,15.0,20.7,N/A,,Overcast,170,2012-10-18 19:15:00
3:35 PM,64.4,44.6,49,29.68,10.0,South,13.8,25.3,N/A,,Overcast,170,2012-10-18 19:35:00
3:55 PM,64.4,44.6,49,29.68,10.0,SSE,15.0,-,N/A,,Overcast,160,2012-10-18 19:55:00
4:15 PM,53.6,44.6,72,29.74,8.0,WSW,16.1,34.5,N/A,,Overcast,240,2012-10-18 20:15:00
4:35 PM,48.2,42.8,82,29.73,8.0,WSW,16.1,-,N/A,,Overcast,250,2012-10-18 20:35:00
4:55 PM,48.2,42.8,82,29.74,7.0,WSW,12.7,-,N/A,,Overcast,240,2012-10-18 20:55:00
5:15 PM,48.2,42.8,82,29.74,10.0,SW,3.5,-,N/A,,Overcast,230,2012-10-18 21:15:00
5:35 PM,48.2,44.6,87,29.74,7.0,Calm,Calm,-,N/A,,Mostly Cloudy,0,2012-10-18 21:35:00
5:55 PM,48.2,44.6,87,29.75,8.0,SSW,3.5,-,0.03,,Overcast,200,2012-10-18 21:55:00
6:15 PM,46.4,44.6,93,29.78,8.0,SSW,6.9,-,0.02,,Overcast,200,2012-10-18 22:15:00
6:35 PM,46.4,44.6,93,29.79,10.0,South,5.8,-,0.12,,Overcast,180,2012-10-18 22:35:00
6:55 PM,46.4,44.6,93,29.82,10.0,South,5.8,-,0.20,,Mostly Cloudy,190,2012-10-18 22:55:00
7:35 PM,46.4,44.6,93,29.82,10.0,SSW,3.5,-,0.17,,Overcast,210,2012-10-18 23:35:00
7:55 PM,46.4,44.6,93,29.82,10.0,Calm,Calm,-,0.20,,Overcast,0,2012-10-18 23:55:00
8:55 PM,46.4,42.8,87,29.83,8.0,South,5.8,-,0.15,,Overcast,170,2012-10-19 00:55:00
9:15 PM,44.6,42.8,93,29.82,10.0,South,4.6,-,0.04,,Overcast,170,2012-10-19 01:15:00
9:35 PM,44.6,42.8,93,29.84,8.0,South,5.8,-,0.06,,Overcast,170,2012-10-19 01:35:00
9:55 PM,44.6,42.8,93,29.84,5.0,SE,6.9,-,0.09,,Mostly Cloudy,130,2012-10-19 01:55:00
10:15 PM,44.6,42.8,93,29.81,2.5,ESE,12.7,-,0.01,,Overcast,120,2012-10-19 02:15:00
10:35 PM,44.6,42.8,93,29.82,10.0,SE,5.8,-,0.01,,Overcast,140,2012-10-19 02:35:00
10:55 PM,44.6,42.8,93,29.79,10.0,SE,10.4,-,0.01,,Overcast,130,2012-10-19 02:55:00
11:15 PM,44.6,42.8,93,29.81,10.0,SE,3.5,-,N/A,,Overcast,140,2012-10-19 03:15:00
11:35 PM,44.6,41.0,87,29.81,10.0,South,3.5,-,N/A,,Scattered Clouds,190,2012-10-19 03:35:00
11:55 PM,44.6,39.2,81,29.82,10.0,South,4.6,-,N/A,,Clear,190,2012-10-19 03:55:00